Time;durP1;ratioP1;P1;durP2;ratioP2;P2;SDS_P1;SDS_P2;PMS_P1;PMS_P2;Temp;Humidity;BMP_temperature;BMP_pressure;BME280_temperature;BME280_humidity;BME280_pressure;Samples;Min_cycle;Max_cycle;Signal;HPM_P1;HPM_P2
2022/10/24 00:00:21;;;;;;;23.33;17.20;;;19.50;1.00;;;;;;5054538;28;20028;-63
2022/10/24 00:02:46;;;;;;;24.05;15.98;;;19.60;1.00;;;;;;5049487;28;20470;-63
2022/10/24 00:05:12;;;;;;;23.67;16.17;;;19.70;1.00;;;;;;5053214;28;20033;-63
2022/10/24 00:07:38;;;;;;;26.77;17.13;;;19.60;1.00;;;;;;5052617;28;20044;-63
2022/10/24 00:10:05;;;;;;;24.58;16.02;;;19.70;1.00;;;;;;5058431;28;20475;-63
2022/10/24 00:12:30;;;;;;;21.30;15.32;;;19.70;1.00;;;;;;5053881;28;20029;-63
2022/10/24 00:14:56;;;;;;;22.13;15.60;;;19.60;1.00;;;;;;5058395;28;20060;-63
2022/10/24 00:17:21;;;;;;;20.60;16.88;;;19.60;1.00;;;;;;5052781;28;20033;-63
2022/10/24 00:19:47;;;;;;;22.30;16.95;;;19.60;1.00;;;;;;5053366;28;20033;-63
2022/10/24 00:22:12;;;;;;;23.20;18.55;;;19.60;1.00;;;;;;5052376;28;20065;-63
2022/10/24 00:24:38;;;;;;;21.20;16.23;;;19.60;1.00;;;;;;5053340;28;20028;-63
2022/10/24 00:27:04;;;;;;;27.50;17.95;;;19.60;1.00;;;;;;5053465;28;20036;-63
2022/10/24 00:29:29;;;;;;;21.83;16.08;;;19.60;1.00;;;;;;5053057;28;20383;-64
2022/10/24 00:31:55;;;;;;;23.25;16.65;;;19.60;1.00;;;;;;5050097;28;20475;-63
2022/10/24 00:34:20;;;;;;;18.75;15.30;;;19.60;1.00;;;;;;5054098;28;20429;-63
2022/10/24 00:36:46;;;;;;;21.38;15.35;;;19.70;1.00;;;;;;5052659;28;20032;-63
2022/10/24 00:39:12;;;;;;;21.30;15.45;;;19.60;1.00;;;;;;5054400;28;20051;-63
2022/10/24 00:41:41;;;;;;;22.63;15.75;;;19.60;1.00;;;;;;5052873;28;20223;-63
2022/10/24 00:44:18;;;;;;;20.05;15.32;;;19.60;1.00;;;;;;5054445;28;20142;-63
2022/10/24 00:46:48;;;;;;;21.23;13.90;;;19.60;1.00;;;;;;5052868;28;20132;-63
2022/10/24 00:49:18;;;;;;;22.80;15.23;;;19.60;1.00;;;;;;5046583;28;20018;-63
2022/10/24 00:51:47;;;;;;;20.27;14.30;;;19.50;1.00;;;;;;5046347;28;20937;-63
2022/10/24 00:54:13;;;;;;;17.17;13.48;;;19.60;1.00;;;;;;5043765;28;20383;-63
2022/10/24 00:56:52;;;;;;;18.63;14.82;;;19.60;1.00;;;;;;5037008;28;20033;-63
2022/10/24 00:59:19;;;;;;;21.13;14.13;;;19.60;1.00;;;;;;5041305;28;20032;-63
2022/10/24 01:01:46;;;;;;;19.40;14.38;;;19.60;1.00;;;;;;5052489;28;20099;-63
2022/10/24 01:04:12;;;;;;;19.25;14.05;;;19.60;1.00;;;;;;5049315;28;20025;-63
2022/10/24 01:06:53;;;;;;;21.90;13.88;;;19.60;1.00;;;;;;5052395;28;20421;-63
2022/10/24 01:09:46;;;;;;;16.40;13.50;;;19.60;1.00;;;;;;5052868;28;20021;-63
2022/10/24 01:12:41;;;;;;;15.27;13.30;;;19.60;1.00;;;;;;5047468;28;20037;-63
2022/10/24 01:15:32;;;;;;;17.15;14.10;;;19.60;1.00;;;;;;5045185;28;20052;-63
2022/10/24 01:18:07;;;;;;;20.77;14.75;;;19.60;1.00;;;;;;5049353;28;20068;-63
2022/10/24 01:21:04;;;;;;;21.38;15.20;;;19.50;1.00;;;;;;5053153;28;20116;-63
2022/10/24 01:23:33;;;;;;;16.20;13.40;;;19.50;1.00;;;;;;5052246;28;20029;-63
2022/10/24 01:25:58;;;;;;;20.45;14.73;;;19.50;1.00;;;;;;5053107;28;20029;-63
2022/10/24 01:28:37;;;;;;;20.45;14.88;;;19.50;1.00;;;;;;5052194;28;20025;-63
2022/10/24 01:31:10;;;;;;;21.27;14.32;;;19.50;1.00;;;;;;5053117;28;20029;-63
2022/10/24 01:33:45;;;;;;;22.35;14.73;;;19.50;1.00;;;;;;5058004;28;20025;-63
2022/10/24 01:36:19;;;;;;;20.83;16.38;;;19.50;1.00;;;;;;5053062;28;20056;-63
2022/10/24 01:38:56;;;;;;;;;;;19.50;1.00;;;;;;5051188;28;20471;-63
2022/10/24 01:41:26;;;;;;;21.50;15.63;;;19.40;1.00;;;;;;5052945;28;20413;-63
2022/10/24 01:43:55;;;;;;;22.65;16.10;;;19.50;1.00;;;;;;5049213;28;20017;-63
2022/10/24 01:46:26;;;;;;;19.95;14.95;;;19.50;1.00;;;;;;5051023;28;20024;-63
2022/10/24 01:49:04;;;;;;;21.40;15.07;;;19.50;1.00;;;;;;5048571;28;20141;-63
2022/10/24 01:51:32;;;;;;;21.85;15.65;;;19.60;1.00;;;;;;5062361;28;20025;-62
2022/10/24 01:53:58;;;;;;;21.13;15.43;;;19.50;1.00;;;;;;5051418;28;20078;-62
2022/10/24 01:56:27;;;;;;;20.90;15.40;;;19.50;1.00;;;;;;5045859;28;20021;-62
2022/10/24 01:59:02;;;;;;;24.92;17.00;;;19.50;1.00;;;;;;5040963;28;20037;-63
2022/10/24 02:01:28;;;;;;;24.95;16.20;;;19.50;1.00;;;;;;5036948;28;20041;-63
2022/10/24 02:03:59;;;;;;;21.92;15.45;;;19.40;1.00;;;;;;5048930;28;20387;-63
2022/10/24 02:06:32;;;;;;;23.60;15.95;;;19.50;1.00;;;;;;5049914;28;20021;-63
2022/10/24 02:09:06;;;;;;;23.40;16.37;;;19.40;1.00;;;;;;5040537;28;20041;-63
2022/10/24 02:11:33;;;;;;;22.48;16.15;;;19.50;1.00;;;;;;5034326;28;20032;-63
2022/10/24 02:14:04;;;;;;;26.08;16.50;;;19.50;1.00;;;;;;5057166;28;20041;-63
2022/10/24 02:16:31;;;;;;;22.45;16.27;;;19.50;1.00;;;;;;5034358;28;20103;-63
2022/10/24 02:18:59;;;;;;;21.77;15.88;;;19.30;1.00;;;;;;5043566;28;20032;-63
2022/10/24 02:21:24;;;;;;;20.90;15.52;;;19.40;1.00;;;;;;5052714;28;20079;-62
2022/10/24 02:24:14;;;;;;;27.70;17.13;;;19.40;1.00;;;;;;5044763;28;20395;-63
2022/10/24 02:26:49;;;;;;;21.35;15.32;;;19.40;1.00;;;;;;5033546;28;20017;-63
2022/10/24 02:29:30;;;;;;;27.52;16.90;;;19.30;1.00;;;;;;5053168;28;20033;-63
2022/10/24 02:31:57;;;;;;;23.50;17.45;;;19.40;1.00;;;;;;5056429;28;20028;-63
2022/10/24 02:34:25;;;;;;;27.77;17.38;;;19.40;1.00;;;;;;5055792;28;20120;-63
2022/10/24 02:36:54;;;;;;;24.52;16.77;;;19.40;1.00;;;;;;5056199;28;20386;-63
2022/10/24 02:39:21;;;;;;;22.90;17.38;;;19.40;1.00;;;;;;5055011;28;20471;-63
2022/10/24 02:41:49;;;;;;;21.90;16.85;;;19.30;1.00;;;;;;5056197;28;20033;-63
2022/10/24 02:44:16;;;;;;;24.48;17.92;;;19.20;1.00;;;;;;5054381;28;20021;-63
2022/10/24 02:46:45;;;;;;;26.25;19.70;;;19.20;1.00;;;;;;5056359;28;20025;-63
2022/10/24 02:49:10;;;;;;;31.77;22.52;;;19.20;1.00;;;;;;5055123;28;20024;-62
2022/10/24 02:51:40;;;;;;;30.33;20.42;;;19.20;1.00;;;;;;5056177;28;20033;-63
2022/10/24 02:54:06;;;;;;;31.55;21.20;;;19.10;1.00;;;;;;5053977;28;20033;-63
2022/10/24 02:56:32;;;;;;;25.33;18.52;;;19.00;1.00;;;;;;5056118;28;20035;-63
2022/10/24 02:58:57;;;;;;;30.63;21.27;;;19.00;1.00;;;;;;5041003;28;20495;-63
2022/10/24 03:01:23;;;;;;;42.50;26.80;;;18.90;1.00;;;;;;5035724;28;20052;-62
2022/10/24 03:03:49;;;;;;;32.53;20.40;;;19.00;1.00;;;;;;5037372;28;20064;-63
2022/10/24 03:06:14;;;;;;;32.47;22.52;;;19.00;1.00;;;;;;5053431;28;20029;-63
2022/10/24 03:08:40;;;;;;;32.22;22.17;;;19.10;1.00;;;;;;5054355;28;20040;-63
2022/10/24 03:11:06;;;;;;;30.92;20.38;;;19.00;1.00;;;;;;5055541;28;20033;-63
2022/10/24 03:13:31;;;;;;;37.55;22.15;;;18.90;1.00;;;;;;5054746;28;20043;-63
2022/10/24 03:15:57;;;;;;;33.70;21.15;;;18.80;1.00;;;;;;5055476;28;20140;-62
2022/10/24 03:18:23;;;;;;;30.15;20.75;;;18.90;1.00;;;;;;5052420;28;20478;-63
2022/10/24 03:20:48;;;;;;;24.35;17.55;;;18.90;1.00;;;;;;5047232;28;20037;-63
2022/10/24 03:23:15;;;;;;;27.02;18.67;;;18.80;1.00;;;;;;5054542;28;20083;-63
2022/10/24 03:25:41;;;;;;;26.38;19.20;;;18.90;1.00;;;;;;5045664;28;20033;-63
2022/10/24 03:28:07;;;;;;;22.67;17.20;;;18.90;1.00;;;;;;5050044;28;20497;-63
2022/10/24 03:30:32;;;;;;;39.38;23.48;;;18.90;1.00;;;;;;5055259;28;20028;-63
2022/10/24 03:32:58;;;;;;;27.20;18.15;;;18.80;1.00;;;;;;5049322;28;20029;-63
2022/10/24 03:35:24;;;;;;;26.30;18.25;;;18.90;1.00;;;;;;5055066;28;20520;-62
2022/10/24 03:37:49;;;;;;;29.13;17.98;;;18.90;1.00;;;;;;5054611;28;20215;-63
2022/10/24 03:40:15;;;;;;;30.45;19.60;;;18.90;1.00;;;;;;5052286;28;20036;-63
2022/10/24 03:42:41;;;;;;;25.73;18.02;;;19.00;1.00;;;;;;5058943;28;20060;-63
2022/10/24 03:45:07;;;;;;;34.70;21.52;;;18.90;1.00;;;;;;5054877;28;20379;-63
2022/10/24 03:47:33;;;;;;;29.52;19.45;;;18.90;1.00;;;;;;5053863;28;20029;-63
2022/10/24 03:49:58;;;;;;;36.42;21.77;;;18.70;1.00;;;;;;5041348;28;20022;-63
2022/10/24 03:52:24;;;;;;;27.67;16.33;;;18.80;1.00;;;;;;5053708;28;20080;-63
2022/10/24 03:54:50;;;;;;;34.88;21.30;;;18.80;1.00;;;;;;5054817;28;20025;-63
2022/10/24 03:57:15;;;;;;;18.83;16.83;;;18.90;1.00;;;;;;5054949;28;20104;-63
2022/10/24 03:59:41;;;;;;;24.73;16.63;;;19.00;1.00;;;;;;5053662;28;20432;-63
2022/10/24 04:02:06;;;;;;;26.75;17.48;;;18.90;1.00;;;;;;5061848;28;20155;-63
2022/10/24 04:04:32;;;;;;;20.52;15.85;;;18.80;1.00;;;;;;5053990;28;20108;-63
2022/10/24 04:06:59;;;;;;;25.15;17.02;;;18.80;1.00;;;;;;5054594;28;20083;-63
2022/10/24 04:09:25;;;;;;;23.90;17.27;;;18.80;1.00;;;;;;5047494;28;20021;-63
2022/10/24 04:11:52;;;;;;;24.02;17.80;;;18.80;1.00;;;;;;5042580;28;20028;-63
2022/10/24 04:14:18;;;;;;;25.70;18.20;;;18.70;1.00;;;;;;5062839;28;20504;-63
2022/10/24 04:16:44;;;;;;;20.83;16.27;;;18.80;1.00;;;;;;5054377;28;20053;-63
2022/10/24 04:19:09;;;;;;;23.98;17.52;;;18.80;1.00;;;;;;5052022;28;20037;-63
2022/10/24 04:21:35;;;;;;;23.42;17.13;;;18.80;1.00;;;;;;5054126;28;20120;-63
2022/10/24 04:24:01;;;;;;;24.85;17.52;;;18.70;1.00;;;;;;5053227;28;20055;-62
2022/10/24 04:26:27;;;;;;;20.77;16.63;;;18.70;1.00;;;;;;5054149;28;20064;-63
2022/10/24 04:28:53;;;;;;;22.88;16.23;;;18.70;1.00;;;;;;5053068;28;20390;-62
2022/10/24 04:31:18;;;;;;;22.35;17.38;;;18.70;1.00;;;;;;5054325;28;20036;-63
2022/10/24 04:33:44;;;;;;;25.90;17.15;;;18.70;1.00;;;;;;5049973;28;20134;-63
2022/10/24 04:36:09;;;;;;;22.65;17.83;;;18.50;1.00;;;;;;5054070;28;20581;-63
2022/10/24 04:38:35;;;;;;;21.52;16.85;;;18.60;1.00;;;;;;5049361;28;20532;-63
2022/10/24 04:41:04;;;;;;;23.08;18.55;;;18.60;1.00;;;;;;5053927;28;20041;-63
2022/10/24 04:43:29;;;;;;;29.15;17.65;;;18.60;1.00;;;;;;5051770;28;20061;-63
2022/10/24 04:45:55;;;;;;;26.08;17.88;;;18.50;1.00;;;;;;5053937;28;20097;-63
2022/10/24 04:48:21;;;;;;;25.50;17.75;;;18.50;1.00;;;;;;5051368;28;20481;-63
2022/10/24 04:50:47;;;;;;;23.67;17.25;;;18.50;1.00;;;;;;5053490;28;20075;-63
2022/10/24 04:53:13;;;;;;;27.15;18.88;;;18.50;1.00;;;;;;5052950;28;20029;-63
2022/10/24 04:55:39;;;;;;;26.50;18.42;;;18.60;1.00;;;;;;5053841;28;20021;-63
2022/10/24 04:58:05;;;;;;;29.35;19.02;;;18.50;1.00;;;;;;5051515;28;20455;-63
2022/10/24 05:00:30;;;;;;;44.28;27.35;;;18.50;1.00;;;;;;5053415;28;20040;-63
2022/10/24 05:02:56;;;;;;;27.85;17.55;;;18.50;1.00;;;;;;5052944;28;20108;-63
2022/10/24 05:05:22;;;;;;;25.27;18.48;;;18.60;1.00;;;;;;5053558;28;20029;-63
2022/10/24 05:07:48;;;;;;;24.20;17.38;;;18.60;1.00;;;;;;5052490;28;20028;-63
2022/10/24 05:10:15;;;;;;;23.48;17.08;;;18.50;1.00;;;;;;5053370;28;20028;-63
2022/10/24 05:12:40;;;;;;;21.95;18.17;;;18.50;1.00;;;;;;5053240;28;20031;-64
2022/10/24 05:15:07;;;;;;;27.33;18.35;;;18.40;1.00;;;;;;5052518;28;20394;-63
2022/10/24 05:17:33;;;;;;;29.23;19.73;;;18.40;1.00;;;;;;5052257;28;20061;-63
2022/10/24 05:19:59;;;;;;;25.05;19.38;;;18.40;1.00;;;;;;5052250;28;20048;-63
2022/10/24 05:22:25;;;;;;;27.88;20.15;;;18.50;1.00;;;;;;5052240;28;20044;-63
2022/10/24 05:24:51;;;;;;;25.10;19.02;;;18.50;1.00;;;;;;5045047;28;20017;-63
2022/10/24 05:27:23;;;;;;;27.13;18.98;;;18.50;1.00;;;;;;5053374;28;20112;-63
2022/10/24 05:29:50;;;;;;;28.17;18.85;;;18.50;1.00;;;;;;5051971;28;20079;-63
2022/10/24 05:32:16;;;;;;;27.02;18.88;;;18.50;1.00;;;;;;5053181;28;20551;-63
2022/10/24 05:34:42;;;;;;;31.45;18.83;;;18.40;1.00;;;;;;5051801;28;20463;-63
2022/10/24 05:37:07;;;;;;;27.80;19.88;;;18.50;1.00;;;;;;5053296;28;20033;-63
2022/10/24 05:39:33;;;;;;;28.95;20.30;;;18.40;1.00;;;;;;5051905;28;20078;-63
2022/10/24 05:41:59;;;;;;;30.35;19.67;;;18.40;1.00;;;;;;5052798;28;20110;-63
2022/10/24 05:44:24;;;;;;;29.13;19.67;;;18.30;1.00;;;;;;5051760;28;20029;-63
2022/10/24 05:46:51;;;;;;;34.50;21.08;;;18.50;1.00;;;;;;5051472;28;20067;-63
2022/10/24 05:49:16;;;;;;;30.27;21.60;;;18.40;1.00;;;;;;5047326;28;20024;-63
2022/10/24 05:51:42;;;;;;;28.15;20.42;;;18.40;1.00;;;;;;5051554;28;20479;-64
2022/10/24 05:54:08;;;;;;;30.15;19.92;;;18.40;1.00;;;;;;5051866;28;20107;-63
2022/10/24 05:56:33;;;;;;;31.88;21.45;;;18.40;1.00;;;;;;5052958;28;20552;-63
2022/10/24 05:58:59;;;;;;;32.83;22.23;;;18.50;1.00;;;;;;5046651;28;20053;-63
2022/10/24 06:01:24;;;;;;;36.30;23.40;;;18.40;1.00;;;;;;5052719;28;20108;-63
2022/10/24 06:03:50;;;;;;;30.00;21.60;;;18.30;1.00;;;;;;5047533;28;20030;-63
2022/10/24 06:06:16;;;;;;;35.28;21.42;;;18.40;1.00;;;;;;5053732;28;20021;-63
2022/10/24 06:08:41;;;;;;;27.67;20.85;;;18.50;1.00;;;;;;5053671;28;20134;-63
2022/10/24 06:11:09;;;;;;;29.80;21.63;;;18.50;1.00;;;;;;5053983;28;20028;-63
2022/10/24 06:13:35;;;;;;;31.80;21.10;;;18.40;1.00;;;;;;5053739;28;20036;-63
2022/10/24 06:16:01;;;;;;;30.67;20.92;;;18.50;1.00;;;;;;5047245;28;20136;-63
2022/10/24 06:18:27;;;;;;;33.30;21.23;;;18.50;1.00;;;;;;5045268;28;20029;-63
2022/10/24 06:20:53;;;;;;;33.97;21.92;;;18.50;1.00;;;;;;5056458;28;20036;-63
2022/10/24 06:23:19;;;;;;;35.78;21.20;;;18.40;1.00;;;;;;5054381;28;20035;-63
2022/10/24 06:25:44;;;;;;;33.33;21.80;;;18.40;1.00;;;;;;5038183;28;20096;-63
2022/10/24 06:28:11;;;;;;;38.83;22.52;;;18.50;1.00;;;;;;5055470;28;20102;-63
2022/10/24 06:30:39;;;;;;;34.78;23.67;;;18.40;1.00;;;;;;5055253;28;20067;-63
2022/10/24 06:33:04;;;;;;;39.08;22.88;;;18.40;1.00;;;;;;5050164;28;20021;-63
2022/10/24 06:35:30;;;;;;;36.47;21.60;;;18.40;1.00;;;;;;5036485;28;20505;-64
2022/10/24 06:37:56;;;;;;;33.08;23.08;;;18.40;1.00;;;;;;5042207;28;20067;-63
2022/10/24 06:40:21;;;;;;;36.75;23.25;;;18.50;1.00;;;;;;5055296;28;20417;-63
2022/10/24 06:42:47;;;;;;;35.13;24.10;;;18.40;1.00;;;;;;5056270;28;20033;-63
2022/10/24 06:45:13;;;;;;;35.08;22.27;;;18.50;1.00;;;;;;5055409;28;20018;-63
2022/10/24 06:47:38;;;;;;;35.03;23.83;;;18.60;1.00;;;;;;5056316;28;20467;-63
2022/10/24 06:50:05;;;;;;;33.50;21.42;;;18.60;1.00;;;;;;5048408;28;20021;-63
2022/10/24 06:52:30;;;;;;;27.80;20.88;;;18.70;1.00;;;;;;5036063;28;20502;-63
2022/10/24 06:54:56;;;;;;;31.15;21.70;;;18.70;1.00;;;;;;5052198;28;20025;-65
2022/10/24 06:57:22;;;;;;;35.33;23.45;;;18.60;1.00;;;;;;5056017;28;20525;-63
2022/10/24 06:59:47;;;;;;;28.33;21.00;;;18.80;1.00;;;;;;5042606;28;20025;-63
2022/10/24 07:02:14;;;;;;;28.98;19.63;;;18.80;1.00;;;;;;5048065;28;20148;-63
2022/10/24 07:04:39;;;;;;;25.95;19.05;;;18.80;1.00;;;;;;5048021;28;20057;-66
2022/10/24 07:07:05;;;;;;;32.80;21.15;;;18.90;1.00;;;;;;5055261;28;20103;-59
2022/10/24 07:09:31;;;;;;;34.03;21.40;;;18.70;1.00;;;;;;5063766;28;20025;-62
2022/10/24 07:11:56;;;;;;;30.70;20.65;;;18.90;1.00;;;;;;5052271;28;20040;-67
2022/10/24 07:14:24;;;;;;;37.10;20.50;;;18.80;1.00;;;;;;5052771;28;20107;-69
2022/10/24 07:16:50;;;;;;;26.88;19.40;;;18.90;1.00;;;;;;5051446;28;20052;-62
2022/10/24 07:19:16;;;;;;;33.50;19.58;;;18.90;1.00;;;;;;5054364;28;20382;-67
2022/10/24 07:21:42;;;;;;;28.70;19.60;;;19.00;1.00;;;;;;5053818;28;20041;-63
2022/10/24 07:24:11;;;;;;;32.10;21.20;;;18.90;1.00;;;;;;5053992;28;20111;-59
2022/10/24 07:26:37;;;;;;;28.80;19.55;;;19.00;1.00;;;;;;5047104;28;20036;-64
2022/10/24 07:29:03;;;;;;;29.23;19.95;;;19.00;1.00;;;;;;5051698;28;20048;-63
2022/10/24 07:31:32;;;;;;;25.33;18.48;;;19.10;1.00;;;;;;5052810;28;20441;-66
2022/10/24 07:34:00;;;;;;;32.28;20.73;;;19.20;1.00;;;;;;5051261;28;20025;-64
2022/10/24 07:36:26;;;;;;;35.13;21.73;;;19.20;1.00;;;;;;5051882;28;20393;-69
2022/10/24 07:38:54;;;;;;;34.80;20.65;;;19.20;1.00;;;;;;5056440;28;20440;-65
2022/10/24 07:41:20;;;;;;;39.15;21.10;;;19.20;1.00;;;;;;5049828;28;20049;-71
2022/10/24 07:43:46;;;;;;;32.08;21.48;;;19.30;1.00;;;;;;5053107;28;20036;-64
2022/10/24 07:46:13;;;;;;;32.03;20.58;;;19.20;1.00;;;;;;5049641;28;20421;-65
2022/10/24 07:48:41;;;;;;;30.45;20.65;;;19.20;1.00;;;;;;5049852;28;20024;-63
2022/10/24 07:51:09;;;;;;;29.17;21.23;;;19.10;1.00;;;;;;5044730;28;20040;-64
2022/10/24 07:53:35;;;;;;;29.42;22.08;;;19.10;1.00;;;;;;5049742;28;20486;-63
2022/10/24 07:56:01;;;;;;;33.05;22.38;;;19.10;1.00;;;;;;5049133;28;20028;-59
2022/10/24 07:58:27;;;;;;;31.80;21.83;;;19.10;1.00;;;;;;5048581;28;20025;-57
2022/10/24 08:00:53;;;;;;;32.90;23.75;;;19.10;1.00;;;;;;5053585;28;20120;-64
2022/10/24 08:03:18;;;;;;;36.92;22.95;;;19.00;1.00;;;;;;5052852;28;20116;-67
2022/10/24 08:05:44;;;;;;;32.65;25.00;;;19.10;1.00;;;;;;5052617;28;20482;-62
2022/10/24 08:08:10;;;;;;;32.70;24.48;;;19.10;1.00;;;;;;5051371;28;20025;-63
2022/10/24 08:10:35;;;;;;;40.90;25.45;;;19.20;1.00;;;;;;5050900;28;20475;-65
2022/10/24 08:13:02;;;;;;;34.90;25.08;;;18.90;1.00;;;;;;5050025;28;20028;-69
2022/10/24 08:15:28;;;;;;;30.58;23.58;;;19.00;1.00;;;;;;5054835;28;20426;-63
2022/10/24 08:17:54;;;;;;;33.72;24.17;;;19.10;1.00;;;;;;5044671;28;20025;-64
2022/10/24 08:20:20;;;;;;;38.67;24.55;;;19.20;1.00;;;;;;5046250;28;20021;-66
2022/10/24 08:22:46;;;;;;;30.67;23.88;;;19.10;1.00;;;;;;5052319;28;20378;-58
2022/10/24 08:25:13;;;;;;;34.15;24.05;;;19.20;1.00;;;;;;5052102;28;20029;-64
2022/10/24 08:27:39;;;;;;;31.50;24.67;;;19.00;1.00;;;;;;5045710;28;20162;-65
2022/10/24 08:30:06;;;;;;;36.17;24.63;;;19.10;1.00;;;;;;5052048;28;20028;-62
2022/10/24 08:32:32;;;;;;;36.22;22.90;;;19.20;1.00;;;;;;5049089;28;20043;-65
2022/10/24 08:34:57;;;;;;;31.92;24.65;;;19.20;1.00;;;;;;5050053;28;20028;-64
2022/10/24 08:37:23;;;;;;;31.35;23.17;;;19.20;1.00;;;;;;5050878;28;20032;-64
2022/10/24 08:39:49;;;;;;;31.80;23.17;;;19.30;1.00;;;;;;5051901;28;20025;-66
2022/10/24 08:42:16;;;;;;;32.42;23.50;;;19.20;1.00;;;;;;5049007;28;20095;-64
2022/10/24 08:44:44;;;;;;;34.28;23.70;;;19.10;1.00;;;;;;5045754;28;20039;-64
2022/10/24 08:47:28;;;;;;;31.05;22.48;;;19.20;1.00;;;;;;5047928;28;20363;-60
2022/10/24 08:50:03;;;;;;;36.85;23.95;;;19.20;1.00;;;;;;5051206;28;20546;-62
2022/10/24 08:52:34;;;;;;;30.95;21.73;;;19.20;1.00;;;;;;5050759;28;20025;-62
2022/10/24 08:55:12;;;;;;;33.92;23.25;;;19.20;1.00;;;;;;5051401;28;20025;-62
2022/10/24 08:57:41;;;;;;;38.20;22.70;;;19.40;1.00;;;;;;5052826;28;20305;-61
2022/10/24 09:00:17;;;;;;;31.50;21.48;;;19.40;1.00;;;;;;5047726;28;20490;-60
2022/10/24 09:02:47;;;;;;;36.75;21.85;;;19.40;1.00;;;;;;5049962;28;20045;-59
2022/10/24 09:05:12;;;;;;;28.58;21.80;;;19.40;1.00;;;;;;5048423;28;20021;-60
2022/10/24 09:07:41;;;;;;;29.73;21.73;;;19.40;1.00;;;;;;5052046;28;20042;-61
2022/10/24 09:10:19;;;;;;;29.50;20.67;;;19.30;1.00;;;;;;5045226;28;20490;-70
2022/10/24 09:12:44;;;;;;;28.83;20.50;;;19.30;1.00;;;;;;5051101;28;20025;-69
2022/10/24 09:15:16;;;;;;;31.90;20.75;;;19.40;1.00;;;;;;5051859;28;20066;-70
2022/10/24 09:17:43;;;;;;;28.77;21.20;;;19.40;1.00;;;;;;5051757;28;20025;-64
2022/10/24 09:20:20;;;;;;;37.20;22.77;;;19.50;1.00;;;;;;5054664;28;20037;-64
2022/10/24 09:22:46;;;;;;;31.58;22.83;;;19.50;1.00;;;;;;5047452;28;20032;-62
2022/10/24 09:25:17;;;;;;;25.98;19.98;;;19.40;1.00;;;;;;5047984;28;20025;-55
2022/10/24 09:27:43;;;;;;;29.05;20.40;;;19.50;1.00;;;;;;5051607;28;20032;-59
2022/10/24 09:30:23;;;;;;;30.77;21.60;;;19.60;1.00;;;;;;5047859;28;20434;-62
2022/10/24 09:32:49;;;;;;;31.75;21.73;;;19.50;1.00;;;;;;5064876;28;20394;-62
2022/10/24 09:35:19;;;;;;;32.65;20.83;;;19.60;1.00;;;;;;5054063;28;20554;-58
2022/10/24 09:37:54;;;;;;;37.17;22.63;;;19.50;1.00;;;;;;5048696;28;20024;-64
2022/10/24 09:40:25;;;;;;;28.75;20.85;;;19.50;1.00;;;;;;5050329;28;20405;-62
2022/10/24 09:43:17;;;;;;;31.38;21.45;;;19.50;1.00;;;;;;5050923;28;20036;-57
2022/10/24 09:45:49;;;;;;;32.58;20.48;;;19.60;1.00;;;;;;5048806;28;20477;-63
2022/10/24 09:48:23;;;;;;;31.58;20.10;;;19.50;1.00;;;;;;5049661;28;20391;-59
2022/10/24 09:50:51;;;;;;;30.77;21.65;;;19.60;1.00;;;;;;5051151;28;20391;-65
2022/10/24 09:53:31;;;;;;;33.08;21.13;;;19.70;1.00;;;;;;5045873;28;20372;-66
2022/10/24 09:56:12;;;;;;;34.22;21.67;;;19.70;1.00;;;;;;5053579;28;20033;-69
2022/10/24 09:58:38;;;;;;;31.45;21.63;;;19.80;1.00;;;;;;5052224;28;20382;-61
2022/10/24 10:01:05;;;;;;;31.73;20.73;;;19.90;1.00;;;;;;5050276;28;20033;-61
2022/10/24 10:03:32;;;;;;;30.23;21.52;;;19.90;1.00;;;;;;5052273;28;20024;-71
2022/10/24 10:06:13;;;;;;;35.92;22.00;;;20.10;1.00;;;;;;5053439;28;20024;-64
2022/10/24 10:08:38;;;;;;;28.98;20.10;;;20.20;1.00;;;;;;5047775;28;20058;-66
2022/10/24 10:11:07;;;;;;;33.08;21.35;;;20.20;1.00;;;;;;5047158;28;20104;-71
2022/10/24 10:13:44;;;;;;;31.25;20.92;;;20.20;1.00;;;;;;5052245;28;20040;-65
2022/10/24 10:16:25;;;;;;;32.15;20.92;;;20.20;1.00;;;;;;5045079;28;20037;-67
2022/10/24 10:19:01;;;;;;;30.88;20.85;;;20.20;1.00;;;;;;5045995;28;20067;-65
2022/10/24 10:21:29;;;;;;;31.55;20.05;;;20.20;1.00;;;;;;5048284;28;22763;-65
2022/10/24 10:23:56;;;;;;;30.10;21.88;;;20.30;1.00;;;;;;5052037;28;20021;-63
2022/10/24 10:26:42;;;;;;;29.02;21.40;;;20.20;1.00;;;;;;5048603;28;20041;-67
2022/10/24 10:29:17;;;;;;;27.85;20.98;;;20.30;1.00;;;;;;5043865;28;20124;-58
2022/10/24 10:31:45;;;;;;;29.67;21.02;;;20.40;1.00;;;;;;5048373;28;20027;-63
2022/10/24 10:34:20;;;;;;;29.83;20.67;;;20.50;1.00;;;;;;5049828;28;20021;-59
2022/10/24 10:37:06;;;;;;;30.83;20.52;;;20.60;1.00;;;;;;5048409;28;20432;-60
2022/10/24 10:40:09;;;;;;;34.40;21.50;;;20.70;1.00;;;;;;5047419;28;20096;-64
2022/10/24 10:42:37;;;;;;;34.85;21.35;;;20.70;1.00;;;;;;5049370;28;20056;-57
2022/10/24 10:45:19;;;;;;;26.55;21.77;;;20.80;1.00;;;;;;5050317;28;20056;-55
2022/10/24 10:48:09;;;;;;;35.08;21.73;;;20.80;1.00;;;;;;5050400;28;20040;-59
2022/10/24 10:50:37;;;;;;;28.45;20.35;;;20.90;1.00;;;;;;5053355;28;20021;-62
2022/10/24 10:53:23;;;;;;;35.03;21.00;;;20.90;1.00;;;;;;5049920;28;20426;-62
2022/10/24 10:56:26;;;;;;;28.17;21.25;;;20.90;1.00;;;;;;5041962;28;20483;-63
2022/10/24 10:59:15;;;;;;;26.77;20.17;;;21.00;1.00;;;;;;5053030;28;20089;-59
2022/10/24 11:01:50;;;;;;;29.85;20.60;;;21.00;1.00;;;;;;5058421;28;20105;-58
2022/10/24 11:04:25;;;;;;;25.65;21.48;;;21.00;1.00;;;;;;5052940;28;20024;-61
2022/10/24 11:07:08;;;;;;;27.40;20.80;;;21.10;1.00;;;;;;5047920;28;20401;-60
2022/10/24 11:09:45;;;;;;;28.08;20.20;;;21.10;1.00;;;;;;5057955;28;20028;-63
2022/10/24 11:12:27;;;;;;;33.90;21.67;;;21.20;1.00;;;;;;5050131;28;20032;-59
2022/10/24 11:15:32;;;;;;;27.55;21.73;;;21.40;1.00;;;;;;5046027;28;20561;-59
2022/10/24 11:18:16;;;;;;;32.78;21.50;;;21.50;1.00;;;;;;5053404;28;20025;-60
2022/10/24 11:20:58;;;;;;;29.25;19.70;;;21.70;1.00;;;;;;5053232;28;20029;-60
2022/10/24 11:23:36;;;;;;;31.65;21.40;;;21.80;1.00;;;;;;5051112;28;20044;-60
2022/10/24 11:26:05;;;;;;;31.45;21.70;;;22.00;1.00;;;;;;5050986;28;20040;-60
2022/10/24 11:28:55;;;;;;;29.25;20.45;;;22.10;1.00;;;;;;5054612;28;20162;-60
2022/10/24 11:31:25;;;;;;;30.30;21.23;;;22.10;1.00;;;;;;5052402;28;20108;-60
2022/10/24 11:34:02;;;;;;;28.67;21.20;;;22.00;1.00;;;;;;5049992;28;20482;-60
2022/10/24 11:36:49;;;;;;;23.73;19.20;;;22.30;1.00;;;;;;5052039;28;20418;-60
2022/10/24 11:39:24;;;;;;;27.65;20.77;;;22.40;1.00;;;;;;5052721;28;20025;-60
2022/10/24 11:42:21;;;;;;;30.35;21.40;;;22.30;1.00;;;;;;5051347;28;20063;-60
2022/10/24 11:45:11;;;;;;;31.42;20.05;;;22.30;1.00;;;;;;5053121;28;20029;-60
2022/10/24 11:48:09;;;;;;;21.63;17.30;;;22.40;1.00;;;;;;5067414;28;20040;-65
2022/10/24 11:50:46;;;;;;;27.40;20.45;;;22.30;1.00;;;;;;5036081;28;20475;-65
2022/10/24 11:53:44;;;;;;;26.80;18.90;;;22.40;1.00;;;;;;5052011;28;20207;-65
2022/10/24 11:56:22;;;;;;;24.15;19.50;;;22.40;1.00;;;;;;5054318;28;20155;-65
2022/10/24 11:58:56;;;;;;;30.25;20.20;;;22.60;1.00;;;;;;5052112;28;20137;-65
2022/10/24 12:01:59;;;;;;;28.58;19.00;;;22.50;1.00;;;;;;5047796;28;20045;-65
2022/10/24 12:04:43;;;;;;;24.45;19.80;;;22.30;1.00;;;;;;5005488;28;20129;-65
2022/10/24 12:07:37;;;;;;;26.58;19.73;;;22.30;1.00;;;;;;5044898;28;20052;-65
2022/10/24 12:10:14;;;;;;;27.73;20.90;;;22.30;1.00;;;;;;5053086;28;20449;-65
2022/10/24 12:13:00;;;;;;;25.80;19.85;;;22.50;1.00;;;;;;5051951;28;20032;-65
2022/10/24 12:15:44;;;;;;;27.33;19.48;;;22.70;1.00;;;;;;5051291;28;20059;-63
2022/10/24 12:18:28;;;;;;;;;;;22.50;1.00;;;;;;5051290;28;20025;-64
2022/10/24 12:21:00;;;;;;;29.10;19.85;;;22.40;1.00;;;;;;5050535;28;19920;-65
2022/10/24 12:23:30;;;;;;;29.70;19.17;;;22.50;1.00;;;;;;5047917;28;20185;-65
2022/10/24 12:26:13;;;;;;;24.13;18.67;;;22.60;1.00;;;;;;5052521;28;20029;-65
2022/10/24 12:28:40;;;;;;;21.25;18.02;;;22.70;1.00;;;;;;5051388;28;20183;-66
2022/10/24 12:31:17;;;;;;;27.73;19.08;;;22.80;1.00;;;;;;5051405;28;20053;-65
2022/10/24 12:33:44;;;;;;;23.45;18.55;;;22.80;1.00;;;;;;5051642;28;20139;-65
2022/10/24 12:36:10;;;;;;;23.48;18.02;;;22.80;1.00;;;;;;5050837;28;20454;-63
2022/10/24 12:38:36;;;;;;;25.65;18.67;;;22.70;1.00;;;;;;5054651;28;20025;-63
2022/10/24 12:41:32;;;;;;;30.13;18.15;;;22.80;1.00;;;;;;5050674;28;20041;-64
2022/10/24 12:44:22;;;;;;;26.02;17.63;;;22.90;1.00;;;;;;5048969;28;20036;-63
2022/10/24 12:46:52;;;;;;;29.90;18.13;;;23.20;1.00;;;;;;5051375;28;20167;-64
2022/10/24 12:49:27;;;;;;;24.63;18.33;;;23.30;1.00;;;;;;5047302;28;20025;-64
2022/10/24 12:51:52;;;;;;;;;;;23.30;1.00;;;;;;5041190;28;20112;-64
2022/10/24 12:54:38;;;;;;;25.48;18.15;;;23.30;1.00;;;;;;5051885;28;20015;-64